createdAt,value
2018-03-19T00:00:09.745Z,31.10
2018-03-19T00:01:09.755Z,33.10
2018-03-19T00:02:09.754Z,31.10
2018-03-19T00:03:09.793Z,32.10
2018-03-19T00:04:09.778Z,32.10
2018-03-19T00:05:09.799Z,33.70
2018-03-19T00:06:09.819Z,31.50
2018-03-19T00:07:09.831Z,30.90
2018-03-19T00:08:09.841Z,30.30
2018-03-19T00:09:09.855Z,30.50
2018-03-19T00:10:09.851Z,29.40
2018-03-19T00:11:09.860Z,31.80
2018-03-19T00:12:09.867Z,30.70
2018-03-19T00:13:09.871Z,32.10
2018-03-19T00:14:09.905Z,30.40
2018-03-19T00:15:09.900Z,29.90
2018-03-19T00:16:09.899Z,32.10
2018-03-19T00:17:09.913Z,34.00
2018-03-19T00:18:09.927Z,32.20
2018-03-19T00:19:09.948Z,29.80
2018-03-19T00:20:09.958Z,30.30
2018-03-19T00:21:09.972Z,30.90
2018-03-19T00:22:09.974Z,30.90
2018-03-19T00:23:09.972Z,32.20
2018-03-19T00:24:09.978Z,31.20
2018-03-19T00:25:09.989Z,30.10
2018-03-19T00:26:10.057Z,29.80
2018-03-19T00:27:10.020Z,29.50
2018-03-19T00:28:10.028Z,30.80
2018-03-19T00:29:10.034Z,29.80
2018-03-19T00:30:10.052Z,29.20
2018-03-19T00:31:10.062Z,30.30
2018-03-19T00:32:10.098Z,30.30
2018-03-19T00:33:10.114Z,31.20
2018-03-19T00:34:10.093Z,30.40
2018-03-19T00:35:10.109Z,28.90
2018-03-19T00:36:10.126Z,30.40
2018-03-19T00:37:10.107Z,31.40
2018-03-19T00:38:10.145Z,30.60
2018-03-19T00:39:10.180Z,30.50
2018-03-19T00:40:10.145Z,30.00
2018-03-19T00:41:10.165Z,29.50
2018-03-19T00:42:10.178Z,29.40
2018-03-19T00:43:10.196Z,31.30
2018-03-19T00:44:10.191Z,32.10
2018-03-19T00:45:10.232Z,29.00
2018-03-19T00:46:10.217Z,31.80
2018-03-19T00:47:10.214Z,31.60
2018-03-19T00:48:10.249Z,31.80
2018-03-19T00:49:10.234Z,27.60
2018-03-19T00:50:10.256Z,27.50
2018-03-19T00:51:10.278Z,29.80
2018-03-19T00:52:10.264Z,29.30
2018-03-19T00:53:10.312Z,29.20
2018-03-19T00:54:10.334Z,29.70
2018-03-19T00:55:10.379Z,29.90
2018-03-19T00:56:10.420Z,28.10
2018-03-19T00:57:10.410Z,27.50
2018-03-19T00:58:10.405Z,28.80
2018-03-19T00:59:10.426Z,28.20
2018-03-19T01:00:10.371Z,29.40
2018-03-19T01:01:10.440Z,26.90
2018-03-19T01:02:10.389Z,28.70
2018-03-19T01:03:10.443Z,29.40
2018-03-19T01:04:10.418Z,30.10
2018-03-19T01:05:10.442Z,31.30
2018-03-19T01:06:10.507Z,27.80
2018-03-19T01:07:10.516Z,27.70
2018-03-19T01:08:10.532Z,28.20
2018-03-19T01:09:10.979Z,28.90
2018-03-19T01:10:10.475Z,31.50
2018-03-19T01:11:10.638Z,29.70
2018-03-19T01:12:10.584Z,28.80
2018-03-19T01:13:10.540Z,31.00
2018-03-19T01:14:10.978Z,29.00
2018-03-19T01:15:10.563Z,27.80
2018-03-19T01:16:10.619Z,29.50
2018-03-19T01:17:10.532Z,27.90
2018-03-19T01:18:10.531Z,28.90
2018-03-19T01:19:10.557Z,28.50
2018-03-19T01:20:10.591Z,26.90
2018-03-19T01:21:10.571Z,27.80
2018-03-19T01:22:10.581Z,29.50
2018-03-19T01:23:10.584Z,28.50
2018-03-19T01:24:10.606Z,27.70
2018-03-19T01:25:10.609Z,27.70
2018-03-19T01:26:10.653Z,31.50
2018-03-19T01:27:10.620Z,29.30
2018-03-19T01:28:10.633Z,30.40
2018-03-19T01:29:10.640Z,27.40
2018-03-19T01:30:10.672Z,27.10
2018-03-19T01:31:10.688Z,27.70
2018-03-19T01:32:10.678Z,27.80
2018-03-19T01:33:10.674Z,28.40
2018-03-19T01:34:10.697Z,31.10
2018-03-19T01:35:10.730Z,28.80
2018-03-19T01:36:10.744Z,25.30
2018-03-19T01:37:10.759Z,29.30
2018-03-19T01:38:10.727Z,28.10
2018-03-19T01:39:10.766Z,28.60
2018-03-19T01:40:10.747Z,27.10
2018-03-19T01:41:10.784Z,30.70
2018-03-19T01:42:10.798Z,28.90
2018-03-19T01:43:10.794Z,29.10
2018-03-19T01:44:10.808Z,29.30
2018-03-19T01:45:10.809Z,29.50
2018-03-19T01:46:10.819Z,28.00
2018-03-19T01:47:10.851Z,28.90
2018-03-19T01:48:10.854Z,28.50
2018-03-19T01:49:10.846Z,28.60
2018-03-19T01:50:10.857Z,28.70
2018-03-19T01:51:10.872Z,27.80
2018-03-19T01:52:10.876Z,28.70
2018-03-19T01:53:10.914Z,27.90
2018-03-19T01:54:10.911Z,29.00
2018-03-19T01:55:10.905Z,30.10
2018-03-19T01:56:10.907Z,29.10
2018-03-19T01:57:10.957Z,28.30
2018-03-19T01:58:10.933Z,29.10
2018-03-19T01:59:10.942Z,30.00
2018-03-19T02:00:10.952Z,29.60
2018-03-19T02:01:10.965Z,29.30
2018-03-19T02:02:11.016Z,28.40
2018-03-19T02:03:10.985Z,31.20
2018-03-19T02:04:11.012Z,30.60
2018-03-19T02:05:10.997Z,28.80
2018-03-19T02:06:11.018Z,29.80
2018-03-19T02:07:11.026Z,28.10
2018-03-19T02:08:11.087Z,28.40
2018-03-19T02:09:11.045Z,30.90
2018-03-19T02:10:11.050Z,29.60
2018-03-19T02:11:11.068Z,30.70
2018-03-19T02:12:11.096Z,29.10
2018-03-19T02:13:11.076Z,32.60
2018-03-19T02:14:11.143Z,29.00
2018-03-19T02:15:11.103Z,29.10
2018-03-19T02:16:11.123Z,29.70
2018-03-19T02:17:11.124Z,28.70
2018-03-19T02:18:11.139Z,29.70
2018-03-19T02:19:11.176Z,30.30
2018-03-19T02:20:11.150Z,28.00
2018-03-19T02:21:11.155Z,28.70
2018-03-19T02:22:11.186Z,30.50
2018-03-19T02:23:11.189Z,27.50
2018-03-19T02:24:11.209Z,29.60
2018-03-19T02:25:11.197Z,29.40
2018-03-19T02:26:11.207Z,29.30
2018-03-19T02:27:11.214Z,29.20
2018-03-19T02:28:11.256Z,28.40
2018-03-19T02:29:11.234Z,29.80
2018-03-19T02:30:11.288Z,27.60
2018-03-19T02:31:11.276Z,30.20
2018-03-19T02:32:11.277Z,28.80
2018-03-19T02:33:11.288Z,31.20
2018-03-19T02:34:11.326Z,28.80
2018-03-19T02:35:11.306Z,30.10
2018-03-19T02:36:11.309Z,29.00
2018-03-19T02:37:11.331Z,30.70
2018-03-19T02:38:11.329Z,31.00
2018-03-19T02:39:11.371Z,31.00
2018-03-19T02:40:11.354Z,31.60
2018-03-19T02:41:11.353Z,28.50
2018-03-19T02:42:11.375Z,31.20
2018-03-19T02:43:11.406Z,28.60
2018-03-19T02:44:11.389Z,30.00
2018-03-19T02:45:11.443Z,29.40
2018-03-19T02:46:11.412Z,28.60
2018-03-19T02:47:11.436Z,29.60
2018-03-19T02:48:11.424Z,30.90
2018-03-19T02:49:11.500Z,31.90
2018-03-19T02:50:11.443Z,33.00
2018-03-19T02:51:11.469Z,33.50
2018-03-19T02:52:11.477Z,31.50
2018-03-19T02:53:11.485Z,32.30
2018-03-19T02:54:11.517Z,33.50
2018-03-19T02:55:11.509Z,31.60
2018-03-19T02:56:11.528Z,30.00
2018-03-19T02:57:11.519Z,31.30
2018-03-19T02:58:11.535Z,30.30
2018-03-19T02:59:11.546Z,31.00
2018-03-19T03:00:11.603Z,29.40
2018-03-19T03:01:11.571Z,29.60
2018-03-19T03:02:11.565Z,31.80
2018-03-19T03:03:11.580Z,31.70
2018-03-19T03:04:11.590Z,28.60
2018-03-19T03:05:11.623Z,31.40
2018-03-19T03:06:11.639Z,31.80
2018-03-19T03:07:11.612Z,34.50
2018-03-19T03:08:11.632Z,32.10
2018-03-19T03:09:11.638Z,31.60
2018-03-19T03:10:11.691Z,31.10
2018-03-19T03:11:11.675Z,31.30
2018-03-19T03:12:11.665Z,31.50
2018-03-19T03:13:11.669Z,31.80
2018-03-19T03:14:11.698Z,56.60
2018-03-19T03:15:11.730Z,32.60
2018-03-19T03:16:11.700Z,31.20
2018-03-19T03:17:11.726Z,29.60
2018-03-19T03:18:11.727Z,29.80
2018-03-19T03:19:11.757Z,31.70
2018-03-19T03:20:11.791Z,31.60
2018-03-19T03:21:14.000Z,29.60
2018-03-19T03:22:15.488Z,29.80
2018-03-19T03:23:13.994Z,31.00
2018-03-19T03:24:16.482Z,30.00
2018-03-19T03:25:17.503Z,30.20
2018-03-19T03:26:18.006Z,31.10
2018-03-19T03:27:14.985Z,30.40
2018-03-19T03:28:14.486Z,30.50
2018-03-19T03:29:16.029Z,32.00
2018-03-19T03:30:17.038Z,31.40
2018-03-19T03:59:34.465Z,30.80
2018-03-19T04:00:02.608Z,30.40
2018-03-19T04:01:02.564Z,31.90
2018-03-19T04:02:02.558Z,32.90
2018-03-19T04:03:02.562Z,31.90
2018-03-19T04:04:02.579Z,31.40
2018-03-19T04:05:02.628Z,32.70
2018-03-19T04:06:02.595Z,32.60
2018-03-19T04:07:02.609Z,30.80
2018-03-19T04:08:02.633Z,33.30
2018-03-19T04:09:02.630Z,34.30
2018-03-19T04:10:02.682Z,33.00
2018-03-19T04:11:02.653Z,34.00
2018-03-19T04:12:02.657Z,32.80
2018-03-19T04:13:02.661Z,32.60
2018-03-19T04:14:02.671Z,31.60
2018-03-19T04:15:02.697Z,35.30
2018-03-19T04:16:02.711Z,33.90
2018-03-19T04:17:02.747Z,33.40
2018-03-19T04:18:02.740Z,34.10
2018-03-19T04:19:02.724Z,32.00
2018-03-19T04:20:02.746Z,31.90
2018-03-19T04:21:02.741Z,32.40
2018-03-19T04:22:02.778Z,37.70
2018-03-19T04:23:02.792Z,34.20
2018-03-19T04:24:02.774Z,32.00
2018-03-19T04:25:02.813Z,32.30
2018-03-19T04:26:02.800Z,33.10
2018-03-19T04:27:02.802Z,32.20
2018-03-19T04:28:02.829Z,33.20
2018-03-19T04:29:02.839Z,34.50
2018-03-19T04:30:02.867Z,33.40
2018-03-19T04:31:03.963Z,36.20
2018-03-19T04:32:02.961Z,33.30
2018-03-19T04:33:02.979Z,33.50
2018-03-19T04:34:10.470Z,34.50
2018-03-19T04:35:03.085Z,32.30
2018-03-19T04:36:02.973Z,36.30
2018-03-19T04:37:03.565Z,36.80
2018-03-19T04:38:03.668Z,32.80
2018-03-19T04:39:03.464Z,34.50
2018-03-19T04:40:03.694Z,36.10
2018-03-19T04:41:03.593Z,34.50
2018-03-19T04:42:04.468Z,32.00
2018-03-19T04:43:03.231Z,33.10
2018-03-19T04:44:05.466Z,33.60
2018-03-19T04:45:03.201Z,34.00
2018-03-19T04:46:03.072Z,33.70
2018-03-19T04:47:03.072Z,34.80
2018-03-19T04:48:03.270Z,36.70
2018-03-19T04:49:03.143Z,33.50
2018-03-19T04:50:03.253Z,34.00
2018-03-19T04:51:03.144Z,35.50
2018-03-19T04:52:03.967Z,43.20
2018-03-19T04:53:03.263Z,34.50
2018-03-19T04:54:03.964Z,37.40
2018-03-19T04:55:03.229Z,37.00
2018-03-19T04:56:03.214Z,37.90
2018-03-19T04:57:08.198Z,34.60
2018-03-19T04:58:03.222Z,35.50
2018-03-19T04:59:03.194Z,35.90
2018-03-19T05:00:03.146Z,36.90
2018-03-19T05:01:03.217Z,38.20
2018-03-19T05:02:03.228Z,38.40
2018-03-19T05:03:03.188Z,35.80
2018-03-19T05:04:03.343Z,36.80
2018-03-19T05:05:03.967Z,37.20
2018-03-19T05:06:03.966Z,37.00
2018-03-19T05:07:03.305Z,37.40
2018-03-19T05:08:03.350Z,33.70
2018-03-19T05:09:03.309Z,37.20
2018-03-19T05:10:03.362Z,37.30
2018-03-19T05:11:03.312Z,36.30
2018-03-19T05:12:03.358Z,37.90
2018-03-19T05:13:03.302Z,35.20
2018-03-19T05:14:03.393Z,36.40
2018-03-19T05:15:03.341Z,35.40
2018-03-19T05:16:03.418Z,40.90
2018-03-19T05:17:03.377Z,39.00
2018-03-19T05:18:03.332Z,39.70
2018-03-19T05:19:03.446Z,40.80
2018-03-19T05:20:03.394Z,39.90
2018-03-19T05:21:03.383Z,37.70
2018-03-19T05:22:03.453Z,39.10
2018-03-19T05:23:03.428Z,38.10
2018-03-19T05:24:03.418Z,36.70
2018-03-19T05:25:03.477Z,39.70
2018-03-19T05:26:03.418Z,36.40
2018-03-19T05:27:03.445Z,43.80
2018-03-19T05:28:03.445Z,63.60
2018-03-19T05:29:03.469Z,43.50
2018-03-19T05:30:03.416Z,41.10
2018-03-19T05:31:03.464Z,40.40
2018-03-19T05:32:04.170Z,41.70
2018-03-19T05:33:03.792Z,39.50
2018-03-19T05:34:03.689Z,42.60
2018-03-19T05:35:05.298Z,40.00
2018-03-19T05:36:04.005Z,43.00
2018-03-19T05:37:04.132Z,40.20
2018-03-19T05:38:04.426Z,42.60
2018-03-19T05:39:04.441Z,41.50
2018-03-19T05:40:04.852Z,38.60
2018-03-19T05:41:04.542Z,44.30
2018-03-19T05:42:04.471Z,42.50
2018-03-19T05:43:04.877Z,40.70
2018-03-19T05:44:03.891Z,57.50
2018-03-19T05:45:04.473Z,49.70
2018-03-19T05:46:06.467Z,39.30
2018-03-19T05:47:04.077Z,40.10
2018-03-19T05:48:03.728Z,38.90
2018-03-19T05:49:04.041Z,41.20
2018-03-19T05:50:05.234Z,40.10
2018-03-19T05:51:03.922Z,41.30
2018-03-19T05:52:05.812Z,41.30
2018-03-19T05:53:05.970Z,45.60
2018-03-19T05:54:06.556Z,44.60
2018-03-19T05:55:03.656Z,40.10
2018-03-19T05:56:03.667Z,48.70
2018-03-19T05:57:03.675Z,42.10
2018-03-19T05:58:03.711Z,47.80
2018-03-19T05:59:03.690Z,46.60
2018-03-19T06:00:03.699Z,46.60
2018-03-19T06:01:03.712Z,42.60
2018-03-19T06:02:03.721Z,40.50
2018-03-19T06:03:03.755Z,42.00
2018-03-19T06:04:03.738Z,41.00
2018-03-19T06:05:03.747Z,41.30
2018-03-19T06:06:03.759Z,39.60
2018-03-19T06:07:03.769Z,40.70
2018-03-19T06:08:03.802Z,42.40
2018-03-19T06:09:03.795Z,39.70
2018-03-19T06:10:03.797Z,42.60
2018-03-19T06:11:03.840Z,39.00
2018-03-19T06:12:03.818Z,38.50
2018-03-19T06:13:03.826Z,47.60
2018-03-19T06:14:03.838Z,38.30
2018-03-19T06:15:03.847Z,40.50
2018-03-19T06:16:03.874Z,38.40
2018-03-19T06:17:03.867Z,41.10
2018-03-19T06:18:03.875Z,41.60
2018-03-19T06:19:03.885Z,41.80
2018-03-19T06:20:03.914Z,40.60
2018-03-19T06:21:03.994Z,40.60
2018-03-19T06:22:03.912Z,40.20
2018-03-19T06:23:03.926Z,41.10
2018-03-19T06:24:03.930Z,38.20
2018-03-19T06:25:03.942Z,41.20
2018-03-19T06:26:03.965Z,39.50
2018-03-19T06:27:03.995Z,40.50
2018-03-19T06:28:04.060Z,42.80
2018-03-19T06:29:03.980Z,41.60
2018-03-19T06:30:04.036Z,43.80
2018-03-19T06:31:04.007Z,41.10
2018-03-19T06:32:04.044Z,46.50
2018-03-19T06:33:04.018Z,40.00
2018-03-19T06:34:04.029Z,43.50
2018-03-19T06:35:04.043Z,41.20
2018-03-19T06:36:04.047Z,40.30
2018-03-19T06:37:04.059Z,41.50
2018-03-19T06:38:04.108Z,41.40
2018-03-19T06:39:04.075Z,40.40
2018-03-19T06:40:04.084Z,43.70
2018-03-19T06:41:04.093Z,44.70
2018-03-19T06:42:04.104Z,39.30
2018-03-19T06:43:04.131Z,42.40
2018-03-19T06:44:04.132Z,40.90
2018-03-19T06:45:04.133Z,40.40
2018-03-19T06:46:04.153Z,41.90
2018-03-19T06:47:04.149Z,40.30
2018-03-19T06:48:04.191Z,41.50
2018-03-19T06:49:04.176Z,41.40
2018-03-19T06:50:04.176Z,39.80
2018-03-19T06:51:04.188Z,38.20
2018-03-19T06:52:04.200Z,38.60
2018-03-19T06:53:04.241Z,38.80
2018-03-19T06:54:04.226Z,40.30
2018-03-19T06:55:04.267Z,39.00
2018-03-19T06:56:04.240Z,38.30
2018-03-19T06:57:04.247Z,37.00
2018-03-19T06:58:04.260Z,39.40
2018-03-19T06:59:04.287Z,40.10
2018-03-19T07:00:04.278Z,37.40
2018-03-19T07:01:04.286Z,43.10
2018-03-19T07:02:04.324Z,43.40
2018-03-19T07:03:04.302Z,42.30
2018-03-19T07:04:04.317Z,40.50
2018-03-19T07:05:04.322Z,40.00
2018-03-19T07:06:04.329Z,39.40
2018-03-19T07:07:04.359Z,41.00
2018-03-19T07:08:04.356Z,43.20
2018-03-19T07:09:04.357Z,36.80
2018-03-19T07:10:04.389Z,37.40
2018-03-19T07:11:04.383Z,37.80
2018-03-19T07:12:04.395Z,38.20
2018-03-19T07:13:04.401Z,39.10
2018-03-19T07:14:04.514Z,40.60
2018-03-19T07:15:04.436Z,38.10
2018-03-19T07:16:04.430Z,38.90
2018-03-19T07:17:04.454Z,41.00
2018-03-19T07:18:04.448Z,38.60
2018-03-19T07:19:04.457Z,38.40
2018-03-19T07:20:04.465Z,37.20
2018-03-19T07:21:04.477Z,36.40
2018-03-19T07:22:04.519Z,37.10
2018-03-19T07:23:04.489Z,38.00
2018-03-19T07:24:04.507Z,36.50
2018-03-19T07:25:04.512Z,37.90
2018-03-19T07:26:04.521Z,39.90
2018-03-19T07:27:04.565Z,41.10
2018-03-19T07:28:04.732Z,39.10
2018-03-19T07:29:04.699Z,38.40
2018-03-19T07:30:04.766Z,35.10
2018-03-19T07:31:04.773Z,37.80
2018-03-19T07:32:04.912Z,37.60
2018-03-19T07:33:04.780Z,38.30
2018-03-19T07:34:04.615Z,35.90
2018-03-19T07:35:04.796Z,38.60
2018-03-19T07:36:04.760Z,42.30
2018-03-19T07:37:04.880Z,40.50
2018-03-19T07:38:04.932Z,38.50
2018-03-19T07:39:04.796Z,39.50
2018-03-19T07:40:04.852Z,38.40
2018-03-19T07:41:04.853Z,37.90
2018-03-19T07:42:04.994Z,38.40
2018-03-19T07:43:04.780Z,36.80
2018-03-19T07:44:04.857Z,35.80
2018-03-19T07:45:04.911Z,36.10
2018-03-19T07:46:04.863Z,37.10
2018-03-19T07:47:04.972Z,38.90
2018-03-19T07:48:05.182Z,39.10
2018-03-19T07:49:04.917Z,35.30
2018-03-19T07:50:04.801Z,36.90
2018-03-19T07:51:04.990Z,34.10
2018-03-19T07:52:04.971Z,35.80
2018-03-19T07:53:04.785Z,33.90
2018-03-19T07:54:04.845Z,36.00
2018-03-19T07:55:04.803Z,34.00
2018-03-19T07:56:04.810Z,35.50
2018-03-19T07:57:04.820Z,34.30
2018-03-19T07:58:04.829Z,36.60
2018-03-19T07:59:04.880Z,36.80
2018-03-19T08:00:04.847Z,36.10
2018-03-19T08:01:04.918Z,37.50
2018-03-19T08:02:04.866Z,33.90
2018-03-19T08:03:04.875Z,33.50
2018-03-19T08:04:04.919Z,38.00
2018-03-19T08:05:04.894Z,36.00
2018-03-19T08:06:04.994Z,35.40
2018-03-19T08:07:04.955Z,40.20
2018-03-19T08:08:04.917Z,38.20
2018-03-19T08:09:04.959Z,37.60
2018-03-19T08:10:04.939Z,37.00
2018-03-19T08:11:04.948Z,35.30
2018-03-19T08:12:04.986Z,37.70
2018-03-19T08:13:05.011Z,38.30
2018-03-19T08:14:04.994Z,34.60
2018-03-19T08:15:05.009Z,36.90
2018-03-19T08:16:04.995Z,35.50
2018-03-19T08:17:05.005Z,34.90
2018-03-19T08:18:05.017Z,35.90
2018-03-19T08:19:05.153Z,34.30
2018-03-19T08:20:05.038Z,37.60
2018-03-19T08:21:05.047Z,36.90
2018-03-19T08:22:05.056Z,35.10
2018-03-19T08:23:05.717Z,38.00
2018-03-19T08:24:05.106Z,39.20
2018-03-19T08:25:05.083Z,38.50
2018-03-19T08:26:05.093Z,40.40
2018-03-19T08:27:05.100Z,40.80
2018-03-19T08:28:05.169Z,38.30
2018-03-19T08:29:05.146Z,36.20
2018-03-19T08:30:05.133Z,38.60
2018-03-19T08:31:05.168Z,36.80
2018-03-19T08:32:05.302Z,37.40
2018-03-19T08:33:05.166Z,36.50
2018-03-19T08:34:05.187Z,35.00
2018-03-19T08:35:05.181Z,36.40
2018-03-19T08:36:05.234Z,33.40
2018-03-19T08:37:05.197Z,34.80
2018-03-19T08:38:05.207Z,35.20
2018-03-19T08:39:05.217Z,38.30
2018-03-19T08:40:05.227Z,39.70
2018-03-19T08:41:05.282Z,36.70
2018-03-19T08:42:05.244Z,37.60
2018-03-19T08:43:05.257Z,38.30
2018-03-19T08:44:05.267Z,40.80
2018-03-19T08:45:05.280Z,35.90
2018-03-19T08:46:05.317Z,36.10
2018-03-19T08:47:05.420Z,35.80
2018-03-19T08:48:05.308Z,38.00
2018-03-19T08:49:05.315Z,36.20
2018-03-19T08:50:05.327Z,39.30
2018-03-19T08:51:05.356Z,34.20
2018-03-19T08:52:05.346Z,33.80
2018-03-19T08:53:05.371Z,38.40
2018-03-19T08:54:05.362Z,34.70
2018-03-19T08:55:05.395Z,35.70
2018-03-19T08:56:05.379Z,38.90
2018-03-19T08:57:05.395Z,36.20
2018-03-19T08:58:05.404Z,38.80
2018-03-19T08:59:05.439Z,34.80
2018-03-19T09:00:05.475Z,34.80
2018-03-19T09:01:05.433Z,33.50
2018-03-19T09:02:05.443Z,35.00
2018-03-19T09:03:06.244Z,37.00
2018-03-19T09:04:05.468Z,35.80
2018-03-19T09:05:05.496Z,43.40
2018-03-19T09:06:05.488Z,34.70
2018-03-19T09:07:05.489Z,34.00
2018-03-19T09:08:05.512Z,34.20
2018-03-19T09:09:05.523Z,36.60
2018-03-19T09:10:05.588Z,34.20
2018-03-19T09:11:05.565Z,35.40
2018-03-19T09:12:05.548Z,34.30
2018-03-19T09:13:05.554Z,35.80
2018-03-19T09:14:05.583Z,30.60
2018-03-19T09:15:05.594Z,30.70
2018-03-19T09:16:05.628Z,32.80
2018-03-19T09:17:06.322Z,38.10
2018-03-19T09:18:05.693Z,35.10
2018-03-19T09:19:05.606Z,34.20
2018-03-19T09:20:05.621Z,42.70
2018-03-19T09:21:05.662Z,38.20
2018-03-19T09:22:06.036Z,41.10
2018-03-19T09:23:06.111Z,43.00
2018-03-19T09:24:05.906Z,36.70
2018-03-19T09:25:05.669Z,39.90
2018-03-19T09:26:05.700Z,36.90
2018-03-19T09:27:05.692Z,33.50
2018-03-19T09:28:05.698Z,35.00
2018-03-19T09:29:05.711Z,37.40
2018-03-19T09:30:05.757Z,37.60
2018-03-19T09:31:05.773Z,36.90
2018-03-19T09:32:05.745Z,39.30
2018-03-19T09:33:05.760Z,34.00
2018-03-19T09:34:05.762Z,37.10
2018-03-19T09:35:05.821Z,37.60
2018-03-19T09:36:05.780Z,33.50
2018-03-19T09:37:05.788Z,34.20
2018-03-19T09:38:05.801Z,36.10
2018-03-19T09:39:05.814Z,36.80
2018-03-19T09:40:05.870Z,38.70
2018-03-19T09:41:05.847Z,33.70
2018-03-19T09:42:05.843Z,36.20
2018-03-19T09:43:05.857Z,38.30
2018-03-19T09:44:05.942Z,36.10
2018-03-19T09:45:05.908Z,35.40
2018-03-19T09:46:05.884Z,33.80
2018-03-19T09:47:05.904Z,36.60
2018-03-19T09:48:05.901Z,35.80
2018-03-19T09:49:06.007Z,34.80
2018-03-19T09:50:06.021Z,35.20
2018-03-19T09:51:05.942Z,34.20
2018-03-19T09:52:05.947Z,36.10
2018-03-19T09:53:05.956Z,34.10
2018-03-19T09:54:05.969Z,35.40
2018-03-19T09:55:06.009Z,33.90
2018-03-19T09:56:05.982Z,32.80
2018-03-19T09:57:05.995Z,35.30
2018-03-19T09:58:06.001Z,35.30
2018-03-19T09:59:06.018Z,34.80
2018-03-19T10:00:06.062Z,32.70
2018-03-19T10:01:06.034Z,34.00
2018-03-19T10:02:06.051Z,35.30
2018-03-19T10:03:06.056Z,33.20
2018-03-19T10:04:06.096Z,30.80
2018-03-19T10:05:06.096Z,37.10
2018-03-19T10:06:06.092Z,33.00
2018-03-19T10:07:06.096Z,35.30
2018-03-19T10:08:06.110Z,34.90
2018-03-19T10:09:06.129Z,31.80
2018-03-19T10:10:06.155Z,31.10
2018-03-19T10:11:06.138Z,31.30
2018-03-19T10:12:06.150Z,30.30
2018-03-19T10:13:06.162Z,32.50
2018-03-19T10:14:06.168Z,29.80
2018-03-19T10:15:06.206Z,29.90
2018-03-19T10:16:06.189Z,32.40
2018-03-19T10:17:06.206Z,33.00
2018-03-19T10:18:06.214Z,32.80
2018-03-19T10:19:06.237Z,30.30
2018-03-19T10:20:06.251Z,32.30
2018-03-19T10:21:06.240Z,32.40
2018-03-19T10:22:06.264Z,32.00
2018-03-19T10:23:06.262Z,31.70
2018-03-19T10:24:06.270Z,31.10
2018-03-19T10:25:06.285Z,33.50
2018-03-19T10:26:06.293Z,34.30
2018-03-19T10:27:06.322Z,31.80
2018-03-19T10:28:06.321Z,30.80
2018-03-19T10:29:06.326Z,30.80
2018-03-19T10:30:06.334Z,31.50
2018-03-19T10:31:06.362Z,29.50
2018-03-19T10:32:06.353Z,29.10
2018-03-19T10:33:06.370Z,26.40
2018-03-19T10:34:06.381Z,25.20
2018-03-19T10:35:06.388Z,26.80
2018-03-19T10:36:06.414Z,27.20
2018-03-19T10:37:06.403Z,26.30
2018-03-19T10:38:06.422Z,25.90
2018-03-19T10:39:06.427Z,32.90
2018-03-19T10:40:06.439Z,26.40
2018-03-19T10:41:06.483Z,25.60
2018-03-19T10:42:06.462Z,26.40
2018-03-19T10:43:06.470Z,26.50
2018-03-19T10:44:06.482Z,27.90
2018-03-19T10:45:06.501Z,25.70
2018-03-19T10:46:06.542Z,26.00
2018-03-19T10:47:06.511Z,29.00
2018-03-19T10:48:06.525Z,29.00
2018-03-19T10:49:06.529Z,29.70
2018-03-19T10:50:06.540Z,27.40
2018-03-19T10:51:06.575Z,29.20
2018-03-19T10:52:06.564Z,36.30
2018-03-19T10:53:06.572Z,33.70
2018-03-19T10:54:06.627Z,30.50
2018-03-19T10:55:06.596Z,30.50
2018-03-19T10:56:06.606Z,28.80
2018-03-19T10:57:06.618Z,32.10
2018-03-19T10:58:06.625Z,33.20
2018-03-19T10:59:06.665Z,32.10
2018-03-19T11:00:06.647Z,26.10
2018-03-19T11:01:06.655Z,28.40
2018-03-19T11:02:06.668Z,27.90
2018-03-19T11:03:06.717Z,28.40
2018-03-19T11:04:06.724Z,28.30
2018-03-19T11:05:06.698Z,29.30
2018-03-19T11:06:06.752Z,27.80
2018-03-19T11:07:06.718Z,29.40
2018-03-19T11:08:06.797Z,28.30
2018-03-19T11:09:06.763Z,26.60
2018-03-19T11:10:06.755Z,26.30
2018-03-19T11:11:06.766Z,29.80
2018-03-19T11:12:06.950Z,29.40
2018-03-19T11:13:06.780Z,28.50
2018-03-19T11:14:06.812Z,35.40
2018-03-19T11:15:06.811Z,30.20
2018-03-19T11:16:06.831Z,29.80
2018-03-19T11:17:06.836Z,29.10
2018-03-19T11:18:06.830Z,27.50
2018-03-19T11:19:06.842Z,25.70
2018-03-19T11:20:06.853Z,27.40
2018-03-19T11:21:06.900Z,32.30
2018-03-19T11:22:06.875Z,26.90
2018-03-19T11:23:06.892Z,27.30
2018-03-19T11:24:06.895Z,34.30
2018-03-19T11:25:06.908Z,29.10
2018-03-19T11:26:06.960Z,29.30
2018-03-19T11:27:06.935Z,29.90
2018-03-19T11:28:06.942Z,28.20
2018-03-19T11:29:06.958Z,30.20
2018-03-19T11:30:07.046Z,27.20
2018-03-19T11:31:07.004Z,35.60
2018-03-19T11:32:06.988Z,30.50
2018-03-19T11:33:07.286Z,30.00
2018-03-19T11:34:07.080Z,23.90
2018-03-19T11:35:07.209Z,26.50
2018-03-19T11:36:07.310Z,25.50
2018-03-19T11:37:07.252Z,27.70
2018-03-19T11:38:07.316Z,30.50
2018-03-19T11:39:07.340Z,28.00
2018-03-19T11:40:07.372Z,27.30
2018-03-19T11:41:07.387Z,26.20
2018-03-19T11:42:07.302Z,27.00
2018-03-19T11:43:07.452Z,29.10
2018-03-19T11:44:07.271Z,29.60
2018-03-19T11:45:07.193Z,24.70
2018-03-19T11:46:07.146Z,29.40
2018-03-19T11:47:07.236Z,27.70
2018-03-19T11:48:07.223Z,28.10
2018-03-19T11:49:07.241Z,27.20
2018-03-19T11:50:07.272Z,27.10
2018-03-19T11:51:07.259Z,27.30
2018-03-19T11:52:07.203Z,26.70
2018-03-19T11:53:07.235Z,26.70
2018-03-19T11:54:07.206Z,31.00
2018-03-19T11:55:07.216Z,28.20
2018-03-19T11:56:07.255Z,28.80
2018-03-19T11:57:07.242Z,27.10
2018-03-19T11:58:07.339Z,26.30
2018-03-19T11:59:07.331Z,26.80
2018-03-19T12:00:07.297Z,26.90
2018-03-19T12:01:07.323Z,28.70
2018-03-19T12:02:07.295Z,28.70
2018-03-19T12:03:07.369Z,28.10
2018-03-19T12:04:07.313Z,26.40
2018-03-19T12:05:07.384Z,31.80
2018-03-19T12:06:07.402Z,29.20
2018-03-19T12:07:07.341Z,29.50
2018-03-19T12:08:07.374Z,24.50
2018-03-19T12:09:07.435Z,26.90
2018-03-19T12:10:07.452Z,26.20
2018-03-19T12:11:07.383Z,26.20
2018-03-19T12:12:07.413Z,25.10
2018-03-19T12:13:07.442Z,30.60
2018-03-19T12:14:07.424Z,27.40
2018-03-19T12:15:07.550Z,26.50
2018-03-19T12:16:07.433Z,26.60
2018-03-19T12:17:07.498Z,26.80
2018-03-19T12:18:07.455Z,28.40
2018-03-19T12:19:07.535Z,29.30
2018-03-19T12:20:07.469Z,29.20
2018-03-19T12:21:08.081Z,26.30
2018-03-19T12:22:07.599Z,27.00
2018-03-19T12:23:07.505Z,27.00
2018-03-19T12:24:07.582Z,26.50
2018-03-19T12:25:07.622Z,26.30
2018-03-19T12:26:07.780Z,28.10
2018-03-19T12:27:07.590Z,32.00
2018-03-19T12:28:07.557Z,26.90
2018-03-19T12:29:07.627Z,25.60
2018-03-19T12:30:07.666Z,23.70
2018-03-19T12:31:07.664Z,26.50
2018-03-19T12:32:07.633Z,27.50
2018-03-19T12:33:07.606Z,26.60
2018-03-19T12:34:07.611Z,26.10
2018-03-19T12:35:07.629Z,26.60
2018-03-19T12:36:07.711Z,26.80
2018-03-19T12:37:07.665Z,27.50
2018-03-19T12:38:07.664Z,34.30
2018-03-19T12:39:07.733Z,30.20
2018-03-19T12:40:07.680Z,33.50
2018-03-19T12:41:07.687Z,31.70
2018-03-19T12:42:07.740Z,26.70
2018-03-19T12:43:07.762Z,25.50
2018-03-19T12:44:07.799Z,26.70
2018-03-19T12:45:07.783Z,27.20
2018-03-19T12:46:07.735Z,29.30
2018-03-19T12:47:07.808Z,29.50
2018-03-19T12:48:07.760Z,29.50
2018-03-19T12:49:07.767Z,38.60
2018-03-19T12:50:07.776Z,33.10
2018-03-19T12:51:08.129Z,43.90
2018-03-19T12:52:07.841Z,45.10
2018-03-19T12:53:07.806Z,51.40
2018-03-19T12:54:07.821Z,39.60
2018-03-19T12:55:07.854Z,36.30
2018-03-19T12:56:07.838Z,35.10
2018-03-19T12:57:07.858Z,40.70
2018-03-19T12:58:07.876Z,56.70
2018-03-19T12:59:07.911Z,40.20
2018-03-19T13:00:07.881Z,40.20
2018-03-19T13:01:07.894Z,38.00
2018-03-19T13:02:07.903Z,34.70
2018-03-19T13:03:07.909Z,48.20
2018-03-19T13:04:07.937Z,33.00
2018-03-19T13:05:07.936Z,41.70
2018-03-19T13:06:07.948Z,36.20
2018-03-19T13:07:07.996Z,49.80
2018-03-19T13:08:07.966Z,36.80
2018-03-19T13:09:07.968Z,39.40
2018-03-19T13:10:07.982Z,38.50
2018-03-19T13:11:08.002Z,43.10
2018-03-19T13:12:08.058Z,41.20
2018-03-19T13:13:08.012Z,39.90
2018-03-19T13:14:08.026Z,42.80
2018-03-19T13:15:08.026Z,41.30
2018-03-19T13:16:08.044Z,33.20
2018-03-19T13:17:08.069Z,37.90
2018-03-19T13:18:08.124Z,47.50
2018-03-19T13:19:08.075Z,35.70
2018-03-19T13:20:08.087Z,39.70